Time;durP1;ratioP1;P1;durP2;ratioP2;P2;SDS_P1;SDS_P2;PMS_P1;PMS_P2;Temp;Humidity;BMP_temperature;BMP_pressure;BME280_temperature;BME280_humidity;BME280_pressure;Samples;Min_cycle;Max_cycle;Signal;HPM_P1;HPM_P2
2022/05/15 00:02:19;;;;;;;;;;;18.60;59.70;;;;;;4926658;28;87938;-47
2022/05/15 00:04:45;;;;;;;;;;;18.50;59.70;;;;;;4927535;28;87481;-47
2022/05/15 00:07:11;;;;;;;;;;;18.50;59.60;;;;;;4949110;28;87129;-48
2022/05/15 00:09:36;;;;;;;;;;;18.50;59.70;;;;;;4967770;28;87682;-47
2022/05/15 00:12:03;;;;;;;;;;;18.50;59.70;;;;;;4968758;28;86851;-47
2022/05/15 00:14:29;;;;;;;;;;;18.40;59.70;;;;;;4968524;28;88156;-49
2022/05/15 00:16:55;;;;;;;;;;;18.40;59.80;;;;;;4968177;28;87495;-47
2022/05/15 00:19:20;;;;;;;;;;;18.40;59.70;;;;;;4968978;28;86127;-47
2022/05/15 00:21:46;;;;;;;;;;;18.40;59.80;;;;;;4968416;28;87171;-47
2022/05/15 00:24:12;;;;;;;;;;;18.40;59.80;;;;;;4967998;28;88738;-47
2022/05/15 00:26:37;;;;;;;;;;;18.40;59.80;;;;;;4970147;28;88182;-47
2022/05/15 00:29:03;;;;;;;;;;;18.30;59.70;;;;;;4967911;28;88533;-47
2022/05/15 00:31:29;;;;;;;;;;;18.40;59.80;;;;;;4967513;28;86921;-47
2022/05/15 00:33:56;;;;;;;;;;;18.40;59.80;;;;;;4968323;28;88149;-47
2022/05/15 00:36:22;;;;;;;;;;;18.30;59.80;;;;;;4967728;28;87665;-47
2022/05/15 00:38:47;;;;;;;;;;;18.30;59.80;;;;;;4968116;28;86910;-47
2022/05/15 00:41:13;;;;;;;;;;;18.30;59.80;;;;;;4968158;28;88142;-47
2022/05/15 00:43:46;;;;;;;;;;;18.30;59.90;;;;;;4968315;28;86884;-47
2022/05/15 00:46:14;;;;;;;;;;;18.20;59.90;;;;;;4967901;28;86908;-47
2022/05/15 00:48:40;;;;;;;;;;;18.20;59.80;;;;;;4970576;28;87020;-47
2022/05/15 00:51:14;;;;;;;;;;;18.20;59.90;;;;;;4967347;28;87791;-48
2022/05/15 00:53:40;;;;;;;;;;;18.20;60.00;;;;;;4968232;28;87728;-47
2022/05/15 00:56:06;;;;;;;;;;;18.20;60.00;;;;;;4967422;28;88618;-47
2022/05/15 00:58:35;;;;;;;;;;;18.20;59.90;;;;;;4967770;28;86913;-47
2022/05/15 01:01:01;;;;;;;;;;;18.10;59.80;;;;;;4968089;28;87159;-47
2022/05/15 01:03:27;;;;;;;;;;;18.10;59.80;;;;;;4967588;28;86888;-47
2022/05/15 01:05:54;;;;;;;;;;;18.10;59.90;;;;;;4967760;28;86978;-47
2022/05/15 01:08:21;;;;;;;;;;;18.10;59.90;;;;;;4968510;28;86704;-47
2022/05/15 01:10:48;;;;;;;;;;;18.10;60.00;;;;;;4970149;28;87039;-47
2022/05/15 01:13:15;;;;;;;;;;;18.10;59.90;;;;;;4968076;28;86835;-47
2022/05/15 01:15:41;;;;;;;;;;;18.10;59.90;;;;;;4966590;28;89881;-47
2022/05/15 01:18:08;;;;;;;;;;;18.00;59.90;;;;;;4967397;28;86871;-47
2022/05/15 01:20:35;;;;;;;;;;;18.00;60.00;;;;;;4967437;28;87146;-47
2022/05/15 01:23:01;;;;;;;;;;;18.00;60.00;;;;;;4967077;28;88540;-47
2022/05/15 01:25:29;;;;;;;;;;;18.00;60.00;;;;;;4967724;28;86864;-48
2022/05/15 01:27:55;;;;;;;;;;;18.00;60.10;;;;;;4967657;28;87085;-47
2022/05/15 01:30:20;;;;;;;;;;;18.00;60.00;;;;;;4967044;28;87616;-47
2022/05/15 01:32:46;;;;;;;;;;;17.90;59.90;;;;;;4970915;28;86129;-47
2022/05/15 01:35:12;;;;;;;;;;;17.90;59.90;;;;;;4966824;28;88626;-47
2022/05/15 01:37:38;;;;;;;;;;;17.90;59.90;;;;;;4966657;28;86945;-47
2022/05/15 01:40:05;;;;;;;;;;;17.90;60.00;;;;;;4966544;28;87796;-47
2022/05/15 01:42:31;;;;;;;;;;;17.90;60.10;;;;;;4966851;28;88358;-47
2022/05/15 01:44:56;;;;;;;;;;;17.90;60.10;;;;;;4967237;28;86844;-47
2022/05/15 01:47:22;;;;;;;;;;;17.80;60.00;;;;;;4967122;28;88130;-47
2022/05/15 01:49:48;;;;;;;;;;;17.80;60.00;;;;;;4966905;28;87546;-47
2022/05/15 01:52:14;;;;;;;;;;;17.80;60.10;;;;;;4967355;28;86844;-47
2022/05/15 01:54:40;;;;;;;;;;;17.80;60.10;;;;;;4969649;28;87661;-48
2022/05/15 01:57:05;;;;;;;;;;;17.80;60.00;;;;;;4967428;28;86126;-47
2022/05/15 01:59:31;;;;;;;;;;;17.80;60.00;;;;;;4967271;28;86844;-47
2022/05/15 02:01:57;;;;;;;;;;;17.70;60.00;;;;;;4966538;28;88375;-47
2022/05/15 02:04:22;;;;;;;;;;;17.70;60.10;;;;;;4966221;28;87799;-47
2022/05/15 02:06:48;;;;;;;;;;;17.70;60.00;;;;;;4966780;28;88037;-47
2022/05/15 02:09:14;;;;;;;;;;;17.70;60.10;;;;;;4965997;28;87044;-47
2022/05/15 02:11:40;;;;;;;;;;;17.70;60.20;;;;;;4967178;28;86867;-48
2022/05/15 02:14:07;;;;;;;;;;;17.70;60.20;;;;;;4966388;28;86863;-47
2022/05/15 02:16:32;;;;;;;;;;;17.70;60.10;;;;;;4969043;28;88763;-47
2022/05/15 02:18:58;;;;;;;;;;;17.70;60.20;;;;;;4966942;28;87455;-47
2022/05/15 02:21:24;;;;;;;;;;;17.60;60.20;;;;;;4966662;28;88075;-47
2022/05/15 02:23:49;;;;;;;;;;;17.60;60.20;;;;;;4966568;28;86840;-47
2022/05/15 02:26:15;;;;;;;;;;;17.60;60.30;;;;;;4966633;28;88309;-47
2022/05/15 02:28:41;;;;;;;;;;;17.60;60.40;;;;;;4965537;28;89734;-47
2022/05/15 02:31:06;;;;;;;;;;;17.60;60.20;;;;;;4966954;28;86936;-47
2022/05/15 02:33:33;;;;;;;;;;;17.60;60.30;;;;;;4966562;28;87071;-47
2022/05/15 02:35:58;;;;;;;;;;;17.60;60.30;;;;;;4969238;28;86895;-47
2022/05/15 02:38:24;;;;;;;;;;;17.60;60.30;;;;;;4966419;28;87038;-47
2022/05/15 02:40:50;;;;;;;;;;;17.50;60.20;;;;;;4966353;28;87428;-47
2022/05/15 02:43:16;;;;;;;;;;;17.50;60.30;;;;;;4966376;28;87193;-47
2022/05/15 02:45:42;;;;;;;;;;;17.50;60.30;;;;;;4966790;28;87322;-47
2022/05/15 02:51:03;;;;;;;;;;;17.50;60.30;;;;;;4966040;28;88475;-47
2022/05/15 02:51:05;;;;;;;;;;;17.50;60.20;;;;;;4969015;28;87140;-47
2022/05/15 02:53:41;;;;;;;;;;;17.50;60.20;;;;;;4969255;28;87928;-47
2022/05/15 02:56:15;;;;;;;;;;;17.40;60.30;;;;;;4969399;28;88855;-47
2022/05/15 02:58:40;;;;;;;;;;;17.40;60.30;;;;;;4972895;28;87153;-47
2022/05/15 03:01:06;;;;;;;;;;;17.40;60.30;;;;;;4969330;28;88643;-47
2022/05/15 03:03:32;;;;;;;;;;;17.40;60.30;;;;;;4969946;28;86905;-47
2022/05/15 03:05:58;;;;;;;;;;;17.30;60.30;;;;;;4969944;28;87015;-47
2022/05/15 03:08:23;;;;;;;;;;;17.40;60.40;;;;;;4969095;28;88449;-47
2022/05/15 03:10:50;;;;;;;;;;;17.40;60.30;;;;;;4970120;28;86121;-47
2022/05/15 03:13:15;;;;;;;;;;;17.30;60.40;;;;;;4969758;28;87281;-47
2022/05/15 03:15:41;;;;;;;;;;;17.30;60.50;;;;;;4969313;28;87608;-47
2022/05/15 03:18:07;;;;;;;;;;;17.30;60.40;;;;;;4968943;28;87851;-47
2022/05/15 03:20:32;;;;;;;;;;;17.30;61.00;;;;;;4971565;28;87845;-47
2022/05/15 03:22:59;;;;;;;;;;;17.30;60.30;;;;;;4969666;28;86788;-47
2022/05/15 03:25:26;;;;;;;;;;;17.30;60.40;;;;;;4969367;28;87965;-47
2022/05/15 03:27:52;;;;;;;;;;;17.20;60.40;;;;;;4968831;28;88763;-47
2022/05/15 03:30:18;;;;;;;;;;;17.30;60.40;;;;;;4969369;28;87158;-47
2022/05/15 03:32:43;;;;;;;;;;;17.30;60.40;;;;;;4969187;28;86966;-47
2022/05/15 03:35:11;;;;;;;;;;;17.20;60.40;;;;;;4969195;28;87891;-47
2022/05/15 03:37:38;;;;;;;;;;;17.20;60.30;;;;;;4968981;28;86856;-47
2022/05/15 03:40:04;;;;;;;;;;;17.20;60.30;;;;;;4969006;28;88096;-47
2022/05/15 03:42:30;;;;;;;;;;;17.20;60.30;;;;;;4970724;28;89956;-47
2022/05/15 03:44:55;;;;;;;;;;;17.10;60.40;;;;;;4969113;28;86900;-47
2022/05/15 03:47:21;;;;;;;;;;;17.10;60.40;;;;;;4968479;28;87609;-47
2022/05/15 03:49:47;;;;;;;;;;;17.20;60.40;;;;;;4969226;28;87187;-47
2022/05/15 03:52:14;;;;;;;;;;;17.10;60.40;;;;;;4968847;28;87043;-47
2022/05/15 03:54:41;;;;;;;;;;;17.10;60.40;;;;;;4968477;28;87706;-47
2022/05/15 03:57:07;;;;;;;;;;;17.10;60.50;;;;;;4968402;28;86909;-47
2022/05/15 03:59:35;;;;;;;;;;;17.10;60.40;;;;;;4968933;28;87051;-47
2022/05/15 04:02:01;;;;;;;;;;;17.10;60.50;;;;;;4967401;28;88603;-47
2022/05/15 04:04:27;;;;;;;;;;;17.10;60.50;;;;;;4971605;28;86870;-47
2022/05/15 04:06:52;;;;;;;;;;;17.10;60.50;;;;;;4967364;28;89525;-47
2022/05/15 04:09:18;;;;;;;;;;;17.00;60.40;;;;;;4967905;28;86934;-47
2022/05/15 04:11:43;;;;;;;;;;;17.00;60.50;;;;;;4968817;28;86953;-47
2022/05/15 04:14:09;;;;;;;;;;;17.00;60.50;;;;;;4967670;28;87675;-47
2022/05/15 04:16:35;;;;;;;;;;;17.00;60.50;;;;;;4967877;28;86890;-47
2022/05/15 04:19:01;;;;;;;;;;;17.00;60.60;;;;;;4967814;28;87817;-48
2022/05/15 04:21:27;;;;;;;;;;;17.00;60.60;;;;;;4967426;28;88292;-47
2022/05/15 04:23:53;;;;;;;;;;;16.90;60.60;;;;;;4968330;28;86161;-47
2022/05/15 04:26:18;;;;;;;;;;;16.90;60.60;;;;;;4970420;28;87151;-47
2022/05/15 04:28:44;;;;;;;;;;;16.90;60.60;;;;;;4968070;28;86867;-47
2022/05/15 04:31:09;;;;;;;;;;;16.90;60.60;;;;;;4967679;28;88117;-47
2022/05/15 04:33:35;;;;;;;;;;;16.90;60.70;;;;;;4967305;28;87641;-47
2022/05/15 04:36:01;;;;;;;;;;;16.90;60.60;;;;;;4967597;28;87039;-47
2022/05/15 04:38:27;;;;;;;;;;;16.90;60.70;;;;;;4967411;28;88179;-47
2022/05/15 04:40:52;;;;;;;;;;;16.90;60.70;;;;;;4967160;28;88517;-48
2022/05/15 04:43:18;;;;;;;;;;;16.90;60.70;;;;;;4967604;28;86889;-47
2022/05/15 04:45:45;;;;;;;;;;;16.90;60.70;;;;;;4970061;28;88334;-48
2022/05/15 04:48:11;;;;;;;;;;;16.90;60.70;;;;;;4968149;28;86144;-47
2022/05/15 04:50:37;;;;;;;;;;;16.90;60.80;;;;;;4967472;28;87674;-47
2022/05/15 04:53:06;;;;;;;;;;;16.80;60.70;;;;;;4967104;28;88604;-47
2022/05/15 04:55:31;;;;;;;;;;;16.80;60.80;;;;;;4966631;28;87923;-47
2022/05/15 04:57:57;;;;;;;;;;;16.80;60.80;;;;;;4967636;28;86894;-47
2022/05/15 05:00:23;;;;;;;;;;;16.90;60.80;;;;;;4967251;28;86912;-47
2022/05/15 05:02:48;;;;;;;;;;;16.90;60.70;;;;;;4967197;28;86926;-46
2022/05/15 05:05:14;;;;;;;;;;;16.80;60.70;;;;;;4967569;28;86884;-47
2022/05/15 05:07:39;;;;;;;;;;;16.80;60.80;;;;;;4969983;28;87621;-47
2022/05/15 05:10:06;;;;;;;;;;;16.80;60.80;;;;;;4967128;28;86791;-47
2022/05/15 05:12:32;;;;;;;;;;;16.80;60.80;;;;;;4967390;28;88265;-47
2022/05/15 05:14:58;;;;;;;;;;;16.80;60.80;;;;;;4966424;28;87061;-47
2022/05/15 05:17:24;;;;;;;;;;;16.80;60.70;;;;;;4966962;28;87801;-47
2022/05/15 05:19:49;;;;;;;;;;;16.80;60.70;;;;;;4966303;28;88560;-47
2022/05/15 05:22:15;;;;;;;;;;;16.80;60.80;;;;;;4967028;28;86878;-47
2022/05/15 05:24:40;;;;;;;;;;;16.80;60.80;;;;;;4967268;28;86875;-47
2022/05/15 05:27:06;;;;;;;;;;;16.80;60.80;;;;;;4966491;28;88618;-47
2022/05/15 05:29:32;;;;;;;;;;;16.90;60.80;;;;;;4969126;28;87003;-47
2022/05/15 05:31:57;;;;;;;;;;;16.80;60.80;;;;;;4965773;28;87675;-47
2022/05/15 05:34:23;;;;;;;;;;;16.80;60.90;;;;;;4966816;28;86856;-48
2022/05/15 05:36:48;;;;;;;;;;;16.80;60.80;;;;;;4967363;28;87094;-47
2022/05/15 05:39:14;;;;;;;;;;;16.90;60.90;;;;;;4966300;28;87710;-47
2022/05/15 05:41:40;;;;;;;;;;;16.80;60.90;;;;;;4966636;28;86868;-47
2022/05/15 05:44:05;;;;;;;;;;;16.80;61.10;;;;;;4966186;28;88524;-47
2022/05/15 05:46:31;;;;;;;;;;;16.80;61.00;;;;;;4966353;28;88615;-47
2022/05/15 05:48:57;;;;;;;;;;;16.80;60.90;;;;;;4966565;28;86989;-47
2022/05/15 05:51:22;;;;;;;;;;;16.80;61.10;;;;;;4969343;28;87468;-47
2022/05/15 05:53:48;;;;;;;;;;;16.80;61.10;;;;;;4966874;28;86875;-47
2022/05/15 05:56:14;;;;;;;;;;;16.80;61.00;;;;;;4966926;28;86809;-47
2022/05/15 05:58:40;;;;;;;;;;;16.80;61.10;;;;;;4966240;28;87784;-47
2022/05/15 06:01:05;;;;;;;;;;;16.80;61.00;;;;;;4966732;28;86154;-47
2022/05/15 06:06:15;;;;;;;;;;;16.80;61.10;;;;;;4962887;28;87117;-47
2022/05/15 06:08:42;;;;;;;;;;;16.80;61.20;;;;;;4965263;28;87837;-48
2022/05/15 06:11:08;;;;;;;;;;;16.80;61.40;;;;;;4965908;28;89087;-47
2022/05/15 06:13:34;;;;;;;;;;;16.80;61.30;;;;;;4968530;28;88517;-47
2022/05/15 06:16:00;;;;;;;;;;;16.80;61.40;;;;;;4966051;28;88098;-47
2022/05/15 06:18:25;;;;;;;;;;;16.70;61.50;;;;;;4965764;28;87540;-47
2022/05/15 06:20:51;;;;;;;;;;;16.80;61.60;;;;;;4966039;28;86905;-47
2022/05/15 06:23:16;;;;;;;;;;;16.70;61.40;;;;;;4966011;28;86920;-48
2022/05/15 06:25:43;;;;;;;;;;;16.70;61.40;;;;;;4965789;28;88229;-47
2022/05/15 06:28:08;;;;;;;;;;;16.80;61.50;;;;;;4966038;28;86950;-47
2022/05/15 06:30:36;;;;;;;;;;;16.80;61.60;;;;;;4966109;28;88279;-48
2022/05/15 06:33:02;;;;;;;;;;;16.80;61.40;;;;;;4964836;28;90068;-47
2022/05/15 06:35:28;;;;;;;;;;;16.90;61.30;;;;;;4968769;28;86891;-47
2022/05/15 06:37:53;;;;;;;;;;;16.90;61.70;;;;;;4965845;28;86955;-47
2022/05/15 06:40:19;;;;;;;;;;;16.80;61.30;;;;;;4965997;28;86919;-51
2022/05/15 06:42:45;;;;;;;;;;;16.90;61.40;;;;;;4966019;28;87072;-47
2022/05/15 06:45:12;;;;;;;;;;;16.90;61.40;;;;;;4965443;28;87715;-47
2022/05/15 06:47:38;;;;;;;;;;;16.90;61.60;;;;;;4966197;28;86878;-47
2022/05/15 06:50:04;;;;;;;;;;;16.90;61.40;;;;;;4966447;28;88005;-47
2022/05/15 06:52:30;;;;;;;;;;;16.90;61.50;;;;;;4965537;28;87473;-46
2022/05/15 06:54:56;;;;;;;;;;;16.90;61.80;;;;;;4969099;28;86950;-47
2022/05/15 06:57:28;;;;;;;;;;;16.90;61.60;;;;;;4964549;28;89554;-47
2022/05/15 06:59:54;;;;;;;;;;;16.90;61.50;;;;;;4965926;28;86840;-47
2022/05/15 07:02:19;;;;;;;;;;;16.90;61.70;;;;;;4965999;28;86914;-47
2022/05/15 07:04:45;;;;;;;;;;;16.90;61.50;;;;;;4965332;28;87682;-47
2022/05/15 07:07:10;;;;;;;;;;;17.00;61.50;;;;;;4965574;28;86818;-47
2022/05/15 07:09:36;;;;;;;;;;;17.00;61.60;;;;;;4965899;28;87107;-47
2022/05/15 07:12:03;;;;;;;;;;;17.00;61.50;;;;;;4965650;28;86791;-47
2022/05/15 07:14:29;;;;;;;;;;;17.00;61.50;;;;;;4966017;28;86230;-47
2022/05/15 07:16:54;;;;;;;;;;;17.00;61.30;;;;;;4968306;28;86871;-47
2022/05/15 07:19:20;;;;;;;;;;;17.00;61.50;;;;;;4965380;28;86973;-47
2022/05/15 07:21:45;;;;;;;;;;;17.00;61.20;;;;;;4964550;28;88199;-46
2022/05/15 07:24:11;;;;;;;;;;;17.00;61.70;;;;;;4965233;28;88788;-47
2022/05/15 07:26:42;;;;;;;;;;;17.00;61.40;;;;;;4965414;28;86911;-47
2022/05/15 07:29:08;;;;;;;;;;;17.00;61.40;;;;;;4965427;28;86999;-48
2022/05/15 07:31:33;;;;;;;;;;;17.10;61.40;;;;;;4965149;28;88071;-47
2022/05/15 07:33:59;;;;;;;;;;;17.10;61.40;;;;;;4965349;28;86899;-48
2022/05/15 07:36:24;;;;;;;;;;;17.10;61.40;;;;;;4966496;28;87102;-47
2022/05/15 07:38:50;;;;;;;;;;;17.10;61.40;;;;;;4971802;28;86180;-47
2022/05/15 07:41:16;;;;;;;;;;;17.10;61.60;;;;;;4968617;28;86956;-47
2022/05/15 07:43:41;;;;;;;;;;;17.00;61.50;;;;;;4968542;28;87432;-47
2022/05/15 07:46:07;;;;;;;;;;;17.00;61.50;;;;;;4968014;28;87819;-47
2022/05/15 07:48:33;;;;;;;;;;;17.10;61.50;;;;;;4968423;28;88068;-47
2022/05/15 07:50:58;;;;;;;;;;;17.10;61.40;;;;;;4968111;28;87777;-47
2022/05/15 07:53:24;;;;;;;;;;;17.00;61.40;;;;;;4968335;28;86906;-47
2022/05/15 07:55:50;;;;;;;;;;;17.00;61.30;;;;;;4968214;28;87842;-47
2022/05/15 07:58:15;;;;;;;;;;;17.10;61.40;;;;;;4967791;28;87957;-48
2022/05/15 08:00:41;;;;;;;;;;;17.10;61.30;;;;;;4971094;28;86912;-47
2022/05/15 08:03:11;;;;;;;;;;;17.10;61.10;;;;;;4968367;28;88063;-47
2022/05/15 08:08:22;;;;;;;;;;;17.10;61.10;;;;;;4968686;28;87200;-47
2022/05/15 08:10:48;;;;;;;;;;;17.10;61.00;;;;;;4966779;28;89054;-47
2022/05/15 08:13:15;;;;;;;;;;;17.10;61.10;;;;;;4968146;28;86892;-48
2022/05/15 08:15:41;;;;;;;;;;;17.10;61.00;;;;;;4968065;28;87822;-47
2022/05/15 08:23:37;;;;;;;;;;;17.20;61.10;;;;;;4970730;28;86887;-47
2022/05/15 08:26:05;;;;;;;;;;;17.10;61.10;;;;;;4967818;28;86932;-47
2022/05/15 08:28:31;;;;;;;;;;;17.10;61.10;;;;;;4968202;28;87076;-47
2022/05/15 08:30:56;;;;;;;;;;;17.20;61.10;;;;;;4967414;28;87510;-47
2022/05/15 08:33:22;;;;;;;;;;;17.20;61.10;;;;;;4967958;28;87215;-47
2022/05/15 08:35:47;;;;;;;;;;;17.20;60.90;;;;;;4967639;28;88121;-47
2022/05/15 08:38:13;;;;;;;;;;;17.20;61.00;;;;;;4967326;28;87930;-48
2022/05/15 08:40:45;;;;;;;;;;;17.20;60.90;;;;;;4967650;28;87254;-48
2022/05/15 08:43:12;;;;;;;;;;;17.20;60.80;;;;;;4970098;28;87356;-47
2022/05/15 08:45:41;;;;;;;;;;;17.20;60.80;;;;;;4967650;28;86855;-47
2022/05/15 08:48:09;;;;;;;;;;;17.20;60.70;;;;;;4967944;28;87123;-47
2022/05/15 08:50:42;;;;;;;;;;;17.20;60.70;;;;;;4967155;28;88706;-47
2022/05/15 08:53:11;;;;;;;;;;;17.20;60.50;;;;;;4968307;28;86067;-47
2022/05/15 08:56:07;;;;;;;;;;;17.30;60.60;;;;;;4967760;28;86892;-47
2022/05/15 08:58:47;;;;;;;;;;;17.30;60.50;;;;;;4950362;28;87737;-47
2022/05/15 09:01:15;;;;;;;;;;;17.30;60.50;;;;;;4966650;28;87814;-47
2022/05/15 09:03:40;;;;;;;;;;;17.30;60.50;;;;;;4967204;28;88972;-47
2022/05/15 09:06:25;;;;;;;;;;;17.30;60.40;;;;;;4970006;28;87420;-48
2022/05/15 09:09:09;;;;;;;;;;;17.30;60.50;;;;;;4967040;28;87740;-47
2022/05/15 09:11:36;;;;;;;;;;;17.30;60.40;;;;;;4966982;28;87656;-47
2022/05/15 09:14:13;;;;;;;;;;;17.30;60.30;;;;;;4967224;28;87308;-47
2022/05/15 09:16:42;;;;;;;;;;;17.30;60.50;;;;;;4967212;28;87911;-46
2022/05/15 09:19:07;;;;;;;;;;;17.30;60.40;;;;;;4967212;28;87223;-47
2022/05/15 09:21:33;;;;;;;;;;;17.30;60.30;;;;;;4967047;28;86890;-47
2022/05/15 09:24:06;;;;;;;;;;;17.30;60.20;;;;;;4967130;28;87860;-47
2022/05/15 09:26:52;;;;;;;;;;;17.40;60.30;;;;;;4965874;28;89496;-47
2022/05/15 09:29:21;;;;;;;;;;;17.40;60.30;;;;;;4969396;28;87232;-47
2022/05/15 09:31:46;;;;;;;;;;;17.40;60.20;;;;;;4966438;28;88138;-48
2022/05/15 09:34:25;;;;;;;;;;;17.40;60.30;;;;;;4966846;28;86898;-47
2022/05/15 09:36:51;;;;;;;;;;;17.40;60.20;;;;;;4967072;28;86908;-47
2022/05/15 09:39:22;;;;;;;;;;;17.40;60.60;;;;;;4966669;28;87100;-48
2022/05/15 09:44:42;;;;;;;;;;;17.40;60.20;;;;;;4964310;28;86252;-47
2022/05/15 09:47:11;;;;;;;;;;;17.50;60.30;;;;;;4966264;28;87066;-47
2022/05/15 09:49:37;;;;;;;;;;;17.50;60.30;;;;;;4966623;28;86895;-47
2022/05/15 09:52:16;;;;;;;;;;;17.50;60.20;;;;;;4968835;28;87835;-47
2022/05/15 09:54:44;;;;;;;;;;;17.50;60.10;;;;;;4966493;28;86919;-47
2022/05/15 09:57:16;;;;;;;;;;;17.50;60.20;;;;;;4965638;28;86937;-47
2022/05/15 09:59:43;;;;;;;;;;;17.50;60.10;;;;;;4965209;28;87735;-47
2022/05/15 10:02:19;;;;;;;;;;;17.60;60.00;;;;;;4966741;28;86978;-47
2022/05/15 10:04:46;;;;;;;;;;;17.60;60.10;;;;;;4966460;28;87431;-47
2022/05/15 10:07:27;;;;;;;;;;;17.60;60.00;;;;;;4966028;28;88103;-47
2022/05/15 10:09:53;;;;;;;;;;;17.60;60.00;;;;;;4966629;28;86149;-47
2022/05/15 10:12:30;;;;;;;;;;;17.60;60.00;;;;;;4966232;28;87505;-47
2022/05/15 10:15:00;;;;;;;;;;;17.60;60.00;;;;;;4968628;28;88640;-47
2022/05/15 10:17:26;;;;;;;;;;;17.70;60.10;;;;;;4965515;28;87857;-47
2022/05/15 10:20:04;;;;;;;;;;;17.70;60.10;;;;;;4965838;28;88547;-48
2022/05/15 10:22:38;;;;;;;;;;;17.70;60.00;;;;;;4966442;28;86946;-47
2022/05/15 10:25:18;;;;;;;;;;;17.70;60.00;;;;;;4966405;28;86894;-47
2022/05/15 10:28:07;;;;;;;;;;;17.70;60.00;;;;;;4965892;28;87472;-47
2022/05/15 10:30:35;;;;;;;;;;;17.70;59.90;;;;;;4955628;28;87002;-47
2022/05/15 10:33:13;;;;;;;;;;;17.80;60.00;;;;;;4966109;28;87909;-48
2022/05/15 10:35:54;;;;;;;;;;;17.80;60.00;;;;;;4966126;28;88017;-47
2022/05/15 10:38:30;;;;;;;;;;;17.80;59.90;;;;;;4969044;28;87085;-47
2022/05/15 10:41:12;;;;;;;;;;;17.80;59.90;;;;;;4965718;28;87579;-48
2022/05/15 10:43:56;;;;;;;;;;;17.80;59.80;;;;;;4965326;28;87796;-48
2022/05/15 10:46:24;;;;;;;;;;;17.80;59.80;;;;;;4965892;28;88014;-47
2022/05/15 10:48:55;;;;;;;;;;;17.90;59.80;;;;;;4965567;28;88776;-47
2022/05/15 10:51:22;;;;;;;;;;;17.90;59.80;;;;;;4965972;28;86865;-48
2022/05/15 10:59:45;;;;;;;;;;;17.90;59.70;;;;;;4965824;28;86886;-48
2022/05/15 11:02:30;;;;;;;;;;;18.00;59.80;;;;;;4965951;28;87716;-47
2022/05/15 11:05:00;;;;;;;;;;;18.00;59.70;;;;;;4965625;28;86847;-49
2022/05/15 11:07:45;;;;;;;;;;;18.00;59.50;;;;;;4965788;28;87177;-47
2022/05/15 11:10:25;;;;;;;;;;;18.00;59.80;;;;;;4965110;28;89594;-47
2022/05/15 11:12:51;;;;;;;;;;;18.00;59.70;;;;;;4969182;28;86919;-47
2022/05/15 11:15:16;;;;;;;;;;;18.10;59.60;;;;;;4968785;28;87058;-47
2022/05/15 11:17:51;;;;;;;;;;;18.10;59.50;;;;;;4968701;28;88543;-47
2022/05/15 11:20:19;;;;;;;;;;;18.10;59.50;;;;;;4968954;28;86912;-47
2022/05/15 11:22:54;;;;;;;;;;;18.20;59.70;;;;;;4971593;28;86978;-47
2022/05/15 11:25:22;;;;;;;;;;;18.20;59.70;;;;;;4969257;28;86976;-47
2022/05/15 11:27:49;;;;;;;;;;;18.20;60.20;;;;;;4969610;28;86816;-47
2022/05/15 11:30:21;;;;;;;;;;;18.20;59.50;;;;;;4968593;28;88749;-48
2022/05/15 11:32:46;;;;;;;;;;;18.30;59.40;;;;;;4968938;28;87096;-47
2022/05/15 11:35:12;;;;;;;;;;;18.30;59.40;;;;;;4968381;28;87855;-47
2022/05/15 11:37:38;;;;;;;;;;;18.30;60.00;;;;;;4968536;28;87520;-47
2022/05/15 11:40:08;;;;;;;;;;;18.30;59.30;;;;;;4968737;28;86856;-48
2022/05/15 11:42:33;;;;;;;;;;;18.30;59.30;;;;;;4968664;28;89444;-47
2022/05/15 11:45:20;;;;;;;;;;;18.40;59.30;;;;;;4971444;28;87527;-48
2022/05/15 11:47:59;;;;;;;;;;;18.40;59.30;;;;;;4928063;28;88004;-48
2022/05/15 11:50:30;;;;;;;;;;;18.40;59.20;;;;;;4968169;28;88716;-47
2022/05/15 11:52:56;;;;;;;;;;;18.50;59.30;;;;;;4969123;28;86285;-47
2022/05/15 11:55:37;;;;;;;;;;;18.50;59.30;;;;;;4968618;28;87283;-50
2022/05/15 11:58:08;;;;;;;;;;;18.50;59.20;;;;;;4968169;28;87473;-46
2022/05/15 12:00:34;;;;;;;;;;;18.50;59.00;;;;;;4967688;28;88025;-47
2022/05/15 12:03:00;;;;;;;;;;;18.50;59.10;;;;;;4968479;28;88775;-46
2022/05/15 12:05:37;;;;;;;;;;;18.60;59.00;;;;;;4968334;28;87440;-47
2022/05/15 12:08:25;;;;;;;;;;;18.50;59.00;;;;;;4970583;28;87053;-47
2022/05/15 12:10:58;;;;;;;;;;;18.60;59.00;;;;;;4966826;28;87610;-47
2022/05/15 12:13:32;;;;;;;;;;;18.60;56.80;;;;;;4968330;28;86899;-47
2022/05/15 12:16:13;;;;;;;;;;;18.70;55.80;;;;;;4968755;28;87061;-47
2022/05/15 12:18:39;;;;;;;;;;;18.80;55.70;;;;;;4968673;28;86779;-47
2022/05/15 12:21:05;;;;;;;;;;;18.90;56.00;;;;;;4968295;28;86833;-47
2022/05/15 12:24:26;;;;;;;;;;;18.90;56.40;;;;;;4967497;28;88393;-46
2022/05/15 12:26:38;;;;;;;;;;;18.80;57.30;;;;;;4966897;28;89165;-45
2022/05/15 12:29:22;;;;;;;;;;;18.80;57.30;;;;;;4968603;28;86950;-45
2022/05/15 12:31:55;;;;;;;;;;;19.00;57.10;;;;;;4970715;28;87948;-48
2022/05/15 12:34:21;;;;;;;;;;;19.00;57.10;;;;;;4968236;28;86939;-45
2022/05/15 12:36:55;;;;;;;;;;;19.00;57.20;;;;;;4968355;28;86876;-45
2022/05/15 12:39:26;;;;;;;;;;;19.00;57.20;;;;;;4967384;28;88411;-46
2022/05/15 12:41:52;;;;;;;;;;;19.10;57.10;;;;;;4967995;28;87107;-48
2022/05/15 12:44:32;;;;;;;;;;;19.10;57.00;;;;;;4968518;28;87987;-45
2022/05/15 12:47:00;;;;;;;;;;;19.10;57.10;;;;;;4967455;28;88629;-47
2022/05/15 12:49:39;;;;;;;;;;;19.10;56.90;;;;;;4968081;28;86808;-47
2022/05/15 12:52:15;;;;;;;;;;;19.10;57.10;;;;;;4966921;28;87652;-45
2022/05/15 12:54:42;;;;;;;;;;;19.20;57.10;;;;;;4970559;28;87605;-45
2022/05/15 12:57:10;;;;;;;;;;;19.20;57.00;;;;;;4967833;28;88091;-46
2022/05/15 12:59:38;;;;;;;;;;;19.20;57.20;;;;;;4967444;28;87815;-47
2022/05/15 13:02:22;;;;;;;;;;;19.20;57.20;;;;;;4967659;28;86950;-45
2022/05/15 13:04:50;;;;;;;;;;;19.30;57.30;;;;;;4967885;28;86928;-46
2022/05/15 13:07:21;;;;;;;;;;;19.30;57.20;;;;;;4967213;28;87485;-45
2022/05/15 13:09:55;;;;;;;;;;;19.30;57.10;;;;;;4968196;28;86156;-45
2022/05/15 13:12:21;;;;;;;;;;;19.30;57.20;;;;;;4967685;28;87139;-45
2022/05/15 13:14:47;;;;;;;;;;;19.30;57.00;;;;;;4970435;28;86881;-44
2022/05/15 13:17:19;;;;;;;;;;;19.30;57.00;;;;;;4966921;28;88072;-45
2022/05/15 13:19:47;;;;;;;;;;;19.40;57.00;;;;;;4967360;28;88838;-45
2022/05/15 13:22:17;;;;;;;;;;;19.40;57.00;;;;;;4967848;28;86846;-45
2022/05/15 13:24:44;;;;;;;;;;;19.40;57.10;;;;;;4966714;28;87076;-44
2022/05/15 13:27:11;;;;;;;;;;;19.50;56.90;;;;;;4967064;28;88515;-46
2022/05/15 13:29:37;;;;;;;;;;;19.40;55.70;;;;;;4967346;28;87209;-46
2022/05/15 13:32:04;;;;;;;;;;;19.40;55.60;;;;;;4967413;28;87140;-47
2022/05/15 13:34:30;;;;;;;;;;;19.40;55.20;;;;;;4966325;28;87822;-46
2022/05/15 13:37:04;;;;;;;;;;;19.50;55.50;;;;;;4970181;28;86838;-47
2022/05/15 13:45:18;;;;;;;;;;;19.70;51.00;;;;;;4964342;28;87472;-46
2022/05/15 13:48:02;;;;;;;;;;;19.70;52.10;;;;;;4966942;28;87536;-47
2022/05/15 13:50:31;;;;;;;;;;;19.70;51.30;;;;;;4966694;28;86993;-47
2022/05/15 13:53:16;;;;;;;;;;;19.60;53.20;;;;;;4966877;28;87174;-47
2022/05/15 13:55:42;;;;;;;;;;;19.70;53.00;;;;;;4966382;28;88063;-47
2022/05/15 13:58:07;;;;;;;;;;;19.80;53.40;;;;;;4967048;28;86885;-47
2022/05/15 14:00:33;;;;;;;;;;;19.80;53.80;;;;;;4970167;28;86203;-47
2022/05/15 14:02:59;;;;;;;;;;;19.90;53.90;;;;;;4966965;28;86888;-47
2022/05/15 14:05:26;;;;;;;;;;;19.90;53.50;;;;;;4966958;28;88272;-47
2022/05/15 14:07:51;;;;;;;;;;;19.90;53.70;;;;;;4965938;28;89604;-47
2022/05/15 14:10:17;;;;;;;;;;;20.00;53.60;;;;;;4966675;28;86933;-46
2022/05/15 14:12:48;;;;;;;;;;;19.90;53.90;;;;;;4966924;28;87144;-47
2022/05/15 14:15:29;;;;;;;;;;;20.00;53.80;;;;;;4966400;28;88440;-47
2022/05/15 14:17:58;;;;;;;;;;;20.00;53.80;;;;;;4966856;28;87146;-47
2022/05/15 14:20:26;;;;;;;;;;;20.00;54.00;;;;;;4966742;28;87933;-47
2022/05/15 14:22:51;;;;;;;;;;;20.10;54.30;;;;;;4969081;28;88556;-46
2022/05/15 14:25:17;;;;;;;;;;;20.10;54.50;;;;;;4967268;28;88125;-49
2022/05/15 14:27:43;;;;;;;;;;;20.10;54.40;;;;;;4966089;28;87623;-48
2022/05/15 14:30:09;;;;;;;;;;;20.10;54.70;;;;;;4966689;28;86855;-48
2022/05/15 14:32:35;;;;;;;;;;;20.20;54.40;;;;;;4966145;28;87866;-48
2022/05/15 14:35:04;;;;;;;;;;;20.20;54.90;;;;;;4966267;28;88692;-48
2022/05/15 14:37:29;;;;;;;;;;;20.20;54.70;;;;;;4966503;28;86958;-48
2022/05/15 14:39:55;;;;;;;;;;;20.20;54.50;;;;;;4966555;28;87389;-48
2022/05/15 14:42:21;;;;;;;;;;;20.20;54.00;;;;;;4966161;28;88433;-48
2022/05/15 14:44:48;;;;;;;;;;;20.30;54.20;;;;;;4969486;28;86994;-49
2022/05/15 14:47:14;;;;;;;;;;;20.30;55.00;;;;;;4969685;28;87687;-48
2022/05/15 14:49:41;;;;;;;;;;;20.30;54.50;;;;;;4970530;28;86225;-47